SAVT/REL METAR and TAF weather

Enter ICAO airport designator
Station Type Date Time Source
SAVT METAR 2019/12/03 20:40 UTC NOAA

SAVT 032040Z 16018KT 2000 RA BKN025 14/10 Q1010


Station Type Date Time Source
SAVT Decoded METAR 2019/12/03 20:40 UTC NOAA

Trelew Aerodrome, Argentina (SAVT) 43-12S 065-16W 43M
Dec 03, 2019 - 03:40 PM EST / 2019.12.03 2040 UTC
Wind: from the SSE (160 degrees) at 21 MPH (18 KT):0
Visibility: 1 mile(s):0
Sky conditions: mostly cloudy
Weather: rain
Temperature: 57 F (14 C)
Dew Point: 50 F (10 C)
Relative Humidity: 76%
Pressure (altimeter): 29.83 in. Hg (1010 hPa)
ob: SAVT 032040Z 16018KT 2000 RA BKN025 14/10 Q1010
cycle: 20

Station Type Date Time Source
SAVT TAF 2019/04/29 08:53 UTC NOAA

TAF
AMD SAVT 290800Z 2908/3006 27025G40KT 9999 SCT020 BKN035 TX16/2919Z TN07/3006Z
TEMPO 2911/2914 7000 -SHRA OVC020 SCT030
BECMG 3002/3004 25015KT

Example: see airport list